createdAt,value
2022-08-25T00:01:56.498Z,21.30
2022-08-25T00:04:24.982Z,21.30
2022-08-25T00:06:58.268Z,21.20
2022-08-25T00:09:28.495Z,21.30
2022-08-25T00:11:55.873Z,21.20
2022-08-25T00:14:27.207Z,21.20
2022-08-25T00:16:56.082Z,21.20
2022-08-25T00:19:27.076Z,21.20
2022-08-25T00:21:55.860Z,21.10
2022-08-25T00:24:23.786Z,21.00
2022-08-25T00:26:54.062Z,20.90
2022-08-25T00:29:22.659Z,20.90
2022-08-25T00:31:49.448Z,20.90
2022-08-25T00:34:21.000Z,20.80
2022-08-25T00:36:50.803Z,20.70
2022-08-25T00:39:20.920Z,20.60
2022-08-25T00:41:49.918Z,20.60
2022-08-25T00:44:18.778Z,20.60
2022-08-25T00:46:52.443Z,20.60
2022-08-25T00:49:31.635Z,20.60
2022-08-25T00:52:23.753Z,20.60
2022-08-25T00:55:06.337Z,20.50
2022-08-25T00:57:46.952Z,20.50
2022-08-25T01:00:22.504Z,20.50
2022-08-25T01:02:49.214Z,20.40
2022-08-25T01:05:16.176Z,20.40
2022-08-25T01:07:44.743Z,20.30
2022-08-25T01:10:13.443Z,20.40
2022-08-25T01:12:41.185Z,20.40
2022-08-25T01:15:10.014Z,20.30
2022-08-25T01:17:46.054Z,20.30
2022-08-25T01:20:14.346Z,20.30
2022-08-25T01:22:41.517Z,20.30
2022-08-25T01:25:37.571Z,20.20
2022-08-25T01:28:04.776Z,20.10
2022-08-25T01:30:31.735Z,20.10
2022-08-25T01:32:58.560Z,20.00
2022-08-25T01:35:25.256Z,20.00
2022-08-25T01:37:51.927Z,20.10
2022-08-25T01:40:18.671Z,20.00
2022-08-25T01:43:06.958Z,20.00
2022-08-25T01:45:34.975Z,19.90
2022-08-25T01:48:02.805Z,19.90
2022-08-25T01:50:30.530Z,19.90
2022-08-25T01:53:08.157Z,19.90
2022-08-25T01:55:51.745Z,19.90
2022-08-25T01:58:31.202Z,19.80
2022-08-25T02:01:01.599Z,19.90
2022-08-25T02:03:29.307Z,19.90
2022-08-25T02:05:58.189Z,19.90
2022-08-25T02:08:25.355Z,19.90
2022-08-25T02:10:53.817Z,20.00
2022-08-25T02:13:20.869Z,20.00
2022-08-25T02:15:56.605Z,20.10
2022-08-25T02:18:23.898Z,20.10
2022-08-25T02:20:50.764Z,20.10
2022-08-25T02:23:17.493Z,20.10
2022-08-25T02:25:44.364Z,20.10
2022-08-25T02:28:11.091Z,20.20
2022-08-25T02:30:39.504Z,20.30
2022-08-25T02:33:06.644Z,20.40
2022-08-25T02:35:33.384Z,20.40
2022-08-25T02:38:00.541Z,20.50
2022-08-25T02:40:27.633Z,20.60
2022-08-25T02:42:55.449Z,20.50
2022-08-25T02:45:22.161Z,20.60
2022-08-25T02:47:49.355Z,20.70
2022-08-25T02:50:16.085Z,20.70
2022-08-25T02:52:43.138Z,20.80
2022-08-25T02:55:14.086Z,20.80
2022-08-25T02:57:42.166Z,20.90
2022-08-25T03:00:11.356Z,20.80
2022-08-25T03:02:41.395Z,20.90
2022-08-25T03:05:09.386Z,20.90
2022-08-25T03:07:38.062Z,20.90
2022-08-25T03:10:07.649Z,21.00
2022-08-25T03:12:34.333Z,21.00
2022-08-25T03:15:01.231Z,21.00
2022-08-25T03:17:28.161Z,21.00
2022-08-25T03:19:57.022Z,21.00
2022-08-25T03:22:23.730Z,21.00
2022-08-25T03:24:50.429Z,21.00
2022-08-25T03:27:17.267Z,21.00
2022-08-25T03:29:43.974Z,21.10
2022-08-25T03:32:11.252Z,21.10
2022-08-25T03:34:38.001Z,21.10
2022-08-25T03:37:06.901Z,21.10
2022-08-25T03:39:33.582Z,21.10
2022-08-25T03:42:02.509Z,21.10
2022-08-25T03:44:29.212Z,21.10
2022-08-25T03:46:55.888Z,21.20
2022-08-25T03:49:23.861Z,21.10
2022-08-25T03:51:53.036Z,21.10
2022-08-25T03:54:22.770Z,21.10
2022-08-25T03:56:49.467Z,21.20
2022-08-25T03:59:16.117Z,21.20
2022-08-25T04:01:44.164Z,21.30
2022-08-25T04:04:12.526Z,21.20
2022-08-25T04:06:40.975Z,21.20
2022-08-25T04:09:08.195Z,21.20
2022-08-25T04:11:34.998Z,21.20
2022-08-25T04:14:02.343Z,21.20
2022-08-25T04:16:31.699Z,21.20
2022-08-25T04:19:02.141Z,21.20
2022-08-25T04:21:29.685Z,21.30
2022-08-25T04:23:57.026Z,21.30
2022-08-25T04:26:37.194Z,21.30
2022-08-25T04:29:06.802Z,21.30
2022-08-25T04:31:34.052Z,21.30
2022-08-25T04:34:05.259Z,21.30
2022-08-25T04:36:52.604Z,21.30
2022-08-25T04:39:20.763Z,21.30
2022-08-25T04:41:48.496Z,21.30
2022-08-25T04:44:15.585Z,21.30
2022-08-25T04:46:42.563Z,21.40
2022-08-25T04:49:10.083Z,21.30
2022-08-25T04:51:39.688Z,21.40
2022-08-25T04:54:12.698Z,21.40
2022-08-25T04:56:41.035Z,21.40
2022-08-25T04:59:11.574Z,21.40
2022-08-25T05:01:39.459Z,21.40
2022-08-25T05:04:08.573Z,21.40
2022-08-25T05:06:41.841Z,21.40
2022-08-25T05:09:11.306Z,21.40
2022-08-25T05:11:39.118Z,21.40
2022-08-25T05:14:11.428Z,21.40
2022-08-25T05:16:39.071Z,21.40
2022-08-25T05:19:06.265Z,21.40
2022-08-25T05:21:33.397Z,21.40
2022-08-25T05:24:01.560Z,21.40
2022-08-25T05:26:30.789Z,21.40
2022-08-25T05:28:58.874Z,21.50
2022-08-25T05:31:26.928Z,21.50
2022-08-25T05:33:54.743Z,21.50
2022-08-25T05:36:22.831Z,21.50
2022-08-25T05:38:50.006Z,21.60
2022-08-25T05:41:19.770Z,21.60
2022-08-25T05:43:48.826Z,21.60
2022-08-25T05:46:18.143Z,21.70
2022-08-25T05:48:44.889Z,21.70
2022-08-25T05:51:12.753Z,21.80
2022-08-25T05:53:41.899Z,21.80
2022-08-25T05:56:09.783Z,21.80
2022-08-25T05:58:37.493Z,21.90
2022-08-25T06:01:23.701Z,21.90
2022-08-25T06:03:54.295Z,22.00
2022-08-25T06:06:24.387Z,22.10
2022-08-25T06:08:51.767Z,22.10
2022-08-25T06:11:19.297Z,22.20
2022-08-25T06:13:46.470Z,22.20
2022-08-25T06:16:13.589Z,22.20
2022-08-25T06:18:40.377Z,22.30
2022-08-25T06:21:09.014Z,22.40
2022-08-25T06:23:37.717Z,22.50
2022-08-25T06:26:04.466Z,22.50
2022-08-25T06:28:31.181Z,22.70
2022-08-25T06:31:01.597Z,22.80
2022-08-25T06:33:28.360Z,22.90
2022-08-25T06:35:56.414Z,23.00
2022-08-25T06:38:23.713Z,23.20
2022-08-25T06:40:52.415Z,23.40
2022-08-25T06:43:20.418Z,23.80
2022-08-25T06:45:48.390Z,24.20
2022-08-25T06:48:15.963Z,24.60
2022-08-25T06:50:44.055Z,25.10
2022-08-25T06:53:10.765Z,25.80
2022-08-25T06:55:37.582Z,27.10
2022-08-25T06:58:05.572Z,28.40
2022-08-25T07:00:37.174Z,29.70
2022-08-25T07:03:04.985Z,31.30
2022-08-25T07:05:42.902Z,32.80
2022-08-25T07:08:12.006Z,34.20
2022-08-25T07:10:39.027Z,35.50
2022-08-25T07:13:05.765Z,36.50
2022-08-25T07:15:32.429Z,37.20
2022-08-25T07:17:59.147Z,37.80
2022-08-25T07:22:57.928Z,38.60
2022-08-25T07:25:24.801Z,38.70
2022-08-25T07:27:54.814Z,38.80
2022-08-25T07:30:25.127Z,39.00
2022-08-25T07:32:54.942Z,38.80
2022-08-25T07:35:26.355Z,38.70
2022-08-25T07:37:57.069Z,38.60
2022-08-25T07:40:31.850Z,38.40
2022-08-25T07:43:02.131Z,38.20
2022-08-25T07:45:31.810Z,38.00
2022-08-25T07:48:00.724Z,37.80
2022-08-25T07:50:29.593Z,37.60
2022-08-25T07:52:57.691Z,37.30
2022-08-25T07:55:27.153Z,37.10
2022-08-25T07:57:57.189Z,37.00
2022-08-25T08:00:29.793Z,36.80
2022-08-25T08:03:03.760Z,36.60
2022-08-25T08:05:31.335Z,36.50
2022-08-25T08:07:58.197Z,36.40
2022-08-25T08:10:47.876Z,36.30
2022-08-25T08:13:16.467Z,36.10
2022-08-25T08:15:46.085Z,35.60
2022-08-25T08:18:12.858Z,35.40
2022-08-25T08:20:43.134Z,35.30
2022-08-25T08:23:11.115Z,35.30
2022-08-25T08:25:37.885Z,35.20
2022-08-25T08:28:04.561Z,35.30
2022-08-25T08:30:36.549Z,35.30
2022-08-25T08:33:12.812Z,35.30
2022-08-25T08:35:43.161Z,35.30
2022-08-25T08:38:17.390Z,35.40
2022-08-25T08:41:22.812Z,35.40
2022-08-25T08:44:13.129Z,35.50
2022-08-25T08:46:59.555Z,35.50
2022-08-25T08:49:46.578Z,35.20
2022-08-25T08:52:17.570Z,35.30
2022-08-25T08:54:46.401Z,35.40
2022-08-25T08:57:18.751Z,35.40
2022-08-25T09:00:01.595Z,35.50
2022-08-25T09:02:49.991Z,35.50
2022-08-25T09:05:21.372Z,35.60
2022-08-25T09:07:54.971Z,35.60
2022-08-25T09:10:24.396Z,35.70
2022-08-25T09:13:17.681Z,35.80
2022-08-25T09:16:16.186Z,35.90
2022-08-25T09:19:21.400Z,36.00
2022-08-25T09:22:35.291Z,36.20
2022-08-25T09:25:39.619Z,36.30
2022-08-25T09:28:21.590Z,36.40
2022-08-25T09:30:59.673Z,36.20
2022-08-25T09:33:28.567Z,36.30
2022-08-25T09:35:57.432Z,36.10
2022-08-25T09:38:26.272Z,35.70
2022-08-25T09:40:58.344Z,35.50
2022-08-25T09:43:35.560Z,35.10
2022-08-25T09:46:13.318Z,35.30
2022-08-25T09:48:42.753Z,35.60
2022-08-25T09:51:38.039Z,35.90
2022-08-25T09:54:15.658Z,36.30
2022-08-25T09:56:55.378Z,36.00
2022-08-25T09:59:34.383Z,35.30
2022-08-25T10:02:25.388Z,34.80
2022-08-25T10:04:53.459Z,34.90
2022-08-25T10:07:35.629Z,35.30
2022-08-25T10:10:15.841Z,35.30
2022-08-25T10:12:51.032Z,34.80
2022-08-25T10:15:29.946Z,34.60
2022-08-25T10:18:17.219Z,34.60
2022-08-25T10:21:03.467Z,34.50
2022-08-25T10:23:37.459Z,35.00
2022-08-25T10:26:11.697Z,35.20
2022-08-25T10:28:59.237Z,35.40
2022-08-25T10:31:37.769Z,35.70
2022-08-25T10:34:51.550Z,36.20
2022-08-25T10:37:40.141Z,36.60
2022-08-25T10:40:10.941Z,37.30
2022-08-25T10:43:00.303Z,37.70
2022-08-25T10:45:44.344Z,37.20
2022-08-25T10:48:19.524Z,36.90
2022-08-25T10:51:03.569Z,37.20
2022-08-25T10:53:30.316Z,36.80
2022-08-25T10:55:57.638Z,36.30
2022-08-25T10:58:55.558Z,36.40
2022-08-25T11:01:36.682Z,36.50
2022-08-25T11:04:20.061Z,37.00
2022-08-25T11:07:10.282Z,37.60
2022-08-25T11:09:41.556Z,38.20
2022-08-25T11:12:26.539Z,38.80
2022-08-25T11:14:57.770Z,38.70
2022-08-25T11:17:37.421Z,38.70
2022-08-25T11:20:15.270Z,38.90
2022-08-25T11:23:08.269Z,38.90
2022-08-25T11:25:42.148Z,38.80
2022-08-25T11:28:38.029Z,39.10
2022-08-25T11:31:06.496Z,39.30
2022-08-25T11:33:33.672Z,38.90
2022-08-25T11:36:12.736Z,38.20
2022-08-25T11:39:15.598Z,37.60
2022-08-25T11:42:05.800Z,37.00
2022-08-25T11:44:53.721Z,37.30
2022-08-25T11:47:32.153Z,37.80
2022-08-25T11:50:29.903Z,37.80
2022-08-25T11:53:28.310Z,38.20
2022-08-25T11:56:12.694Z,38.70
2022-08-25T11:58:47.461Z,38.20
2022-08-25T12:01:43.118Z,37.60
2022-08-25T12:04:44.942Z,37.30
2022-08-25T12:07:17.197Z,37.30
2022-08-25T12:09:51.231Z,36.90
2022-08-25T12:12:42.690Z,36.60
2022-08-25T12:15:21.797Z,36.40
2022-08-25T12:18:09.611Z,35.70
2022-08-25T12:20:53.319Z,36.20
2022-08-25T12:24:03.861Z,36.30
2022-08-25T12:26:48.918Z,36.40
2022-08-25T12:29:26.637Z,37.00
2022-08-25T12:32:02.413Z,37.30
2022-08-25T12:34:31.655Z,37.20
2022-08-25T12:37:06.407Z,37.10
2022-08-25T12:39:42.594Z,37.20
2022-08-25T12:42:31.219Z,37.10
2022-08-25T12:45:25.411Z,36.60
2022-08-25T12:47:54.643Z,36.40
2022-08-25T12:50:41.617Z,36.90
2022-08-25T12:53:47.633Z,37.30
2022-08-25T12:56:39.114Z,37.20
2022-08-25T12:59:19.833Z,37.40
2022-08-25T13:02:14.384Z,37.80
2022-08-25T13:05:36.293Z,38.00
2022-08-25T13:08:34.056Z,37.60
2022-08-25T13:11:20.236Z,37.40
2022-08-25T13:14:14.878Z,37.50
2022-08-25T13:16:55.975Z,37.80
2022-08-25T13:19:24.302Z,38.20
2022-08-25T13:21:51.628Z,38.40
2022-08-25T13:24:26.661Z,38.50
2022-08-25T13:26:57.678Z,38.80
2022-08-25T13:29:34.861Z,38.90
2022-08-25T13:32:12.903Z,38.90
2022-08-25T13:34:43.346Z,38.60
2022-08-25T13:37:32.260Z,38.60
2022-08-25T13:40:17.803Z,38.70
2022-08-25T13:42:52.993Z,38.80
2022-08-25T13:45:28.763Z,38.60
2022-08-25T13:47:56.960Z,38.50
2022-08-25T13:50:27.000Z,38.10
2022-08-25T13:53:16.900Z,38.00
2022-08-25T13:56:01.105Z,38.00
2022-08-25T13:58:44.771Z,38.20
2022-08-25T14:01:22.952Z,38.20
2022-08-25T14:04:31.774Z,38.50
2022-08-25T14:07:33.701Z,38.70
2022-08-25T14:10:06.498Z,38.80
2022-08-25T14:12:46.179Z,38.90
2022-08-25T14:15:20.062Z,38.70
2022-08-25T14:18:09.450Z,38.30
2022-08-25T14:20:47.757Z,38.10
2022-08-25T14:23:21.354Z,37.90
2022-08-25T14:25:50.853Z,37.40
2022-08-25T14:28:25.981Z,37.30
2022-08-25T14:31:15.877Z,37.30
2022-08-25T14:33:55.520Z,37.40
2022-08-25T14:36:22.554Z,37.40
2022-08-25T14:38:54.763Z,37.40
2022-08-25T14:41:23.603Z,37.20
2022-08-25T14:43:50.357Z,36.80
2022-08-25T14:46:23.386Z,36.40
2022-08-25T14:48:55.354Z,36.20
2022-08-25T14:51:23.454Z,36.20
2022-08-25T14:53:53.958Z,36.20
2022-08-25T14:56:20.687Z,35.70
2022-08-25T14:58:51.140Z,35.40
2022-08-25T15:01:28.366Z,35.10
2022-08-25T15:04:04.998Z,34.80
2022-08-25T15:06:35.103Z,34.80
2022-08-25T15:09:10.817Z,34.80
2022-08-25T15:11:43.787Z,34.80
2022-08-25T15:14:15.441Z,34.90
2022-08-25T15:16:45.677Z,34.80
2022-08-25T15:19:15.874Z,34.80
2022-08-25T15:21:44.370Z,34.90
2022-08-25T15:24:12.550Z,34.80
2022-08-25T15:26:56.832Z,34.80
2022-08-25T15:29:26.171Z,34.80
2022-08-25T15:31:53.010Z,34.70
2022-08-25T15:34:19.869Z,34.60
2022-08-25T15:36:47.259Z,34.60
2022-08-25T15:39:14.413Z,34.50
2022-08-25T15:41:42.638Z,34.50
2022-08-25T15:44:11.272Z,34.60
2022-08-25T15:46:41.338Z,34.60
2022-08-25T15:49:08.125Z,34.80
2022-08-25T15:51:35.044Z,34.90
2022-08-25T15:54:01.907Z,34.90
2022-08-25T15:56:28.609Z,34.90
2022-08-25T15:58:55.591Z,34.90
2022-08-25T16:01:27.661Z,34.70
2022-08-25T16:03:57.262Z,34.60
2022-08-25T16:06:26.037Z,34.60
2022-08-25T16:08:52.978Z,34.60
2022-08-25T16:11:23.325Z,34.50
2022-08-25T16:13:51.544Z,34.50
2022-08-25T16:16:19.395Z,34.40
2022-08-25T16:18:47.248Z,34.20
2022-08-25T16:21:19.845Z,34.10
2022-08-25T16:23:47.119Z,33.90
2022-08-25T16:26:15.980Z,33.90
2022-08-25T16:28:44.688Z,33.80
2022-08-25T16:31:13.939Z,33.80
2022-08-25T16:36:15.471Z,33.60
2022-08-25T16:38:48.897Z,33.50
2022-08-25T16:41:19.609Z,33.30
2022-08-25T16:43:47.842Z,33.20
2022-08-25T16:46:16.481Z,33.10
2022-08-25T16:48:44.732Z,33.00
2022-08-25T16:51:14.714Z,33.00
2022-08-25T16:54:00.821Z,32.90
2022-08-25T16:56:29.589Z,32.80
2022-08-25T16:58:59.341Z,32.70
2022-08-25T17:01:27.215Z,32.50
2022-08-25T17:03:57.585Z,32.50
2022-08-25T17:06:27.093Z,32.40
2022-08-25T17:08:54.043Z,32.30
2022-08-25T17:11:26.447Z,32.30
2022-08-25T17:13:57.242Z,32.20
2022-08-25T17:16:27.961Z,32.10
2022-08-25T17:18:55.522Z,32.00
2022-08-25T17:21:24.606Z,32.00
2022-08-25T17:23:53.208Z,31.80
2022-08-25T17:26:20.266Z,31.70
2022-08-25T17:28:54.838Z,31.60
2022-08-25T17:31:22.319Z,31.40
2022-08-25T17:33:49.091Z,31.30
2022-08-25T17:36:17.264Z,31.20
2022-08-25T17:38:44.798Z,31.10
2022-08-25T17:41:12.149Z,31.00
2022-08-25T17:43:41.295Z,30.80
2022-08-25T17:46:09.686Z,30.70
2022-08-25T17:48:38.058Z,30.50
2022-08-25T17:51:11.046Z,30.40
2022-08-25T17:53:38.625Z,30.30
2022-08-25T17:56:09.477Z,30.20
2022-08-25T17:58:36.746Z,29.90
2022-08-25T18:01:04.450Z,29.70
2022-08-25T18:03:32.639Z,29.40
2022-08-25T18:06:00.288Z,29.30
2022-08-25T18:08:32.118Z,29.30
2022-08-25T18:11:03.452Z,29.30
2022-08-25T18:13:31.546Z,29.20
2022-08-25T18:15:58.698Z,28.90
2022-08-25T18:18:25.635Z,28.70
2022-08-25T18:20:52.591Z,28.70
2022-08-25T18:23:19.792Z,28.60
2022-08-25T18:25:49.350Z,28.50
2022-08-25T18:28:16.506Z,28.40
2022-08-25T18:30:43.545Z,28.30
2022-08-25T18:33:10.766Z,28.10
2022-08-25T18:35:38.409Z,28.00
2022-08-25T18:38:25.194Z,27.90
2022-08-25T18:40:59.477Z,27.70
2022-08-25T18:43:28.110Z,27.60
2022-08-25T18:45:59.461Z,27.50
2022-08-25T18:48:26.822Z,27.40
2022-08-25T18:50:56.571Z,27.20
2022-08-25T18:53:30.510Z,27.20
2022-08-25T18:56:05.310Z,27.10
2022-08-25T18:58:32.036Z,27.10
2022-08-25T19:01:01.107Z,27.00
2022-08-25T19:03:28.084Z,26.70
2022-08-25T19:05:57.701Z,26.60
2022-08-25T19:08:24.925Z,26.40
2022-08-25T19:10:53.534Z,26.40
2022-08-25T19:13:22.436Z,26.20
2022-08-25T19:15:51.280Z,26.10
2022-08-25T19:18:19.199Z,26.10
2022-08-25T19:20:53.285Z,26.00
2022-08-25T19:23:20.232Z,26.00
2022-08-25T19:25:46.964Z,25.90
2022-08-25T19:28:14.122Z,25.80
2022-08-25T19:30:49.901Z,25.90
2022-08-25T19:33:42.058Z,25.90
2022-08-25T19:36:08.576Z,25.90
2022-08-25T19:38:36.773Z,25.80
2022-08-25T19:41:13.864Z,25.80
2022-08-25T19:43:55.591Z,25.70
2022-08-25T19:46:32.813Z,25.70
2022-08-25T19:49:07.738Z,25.60
2022-08-25T19:51:37.191Z,25.50
2022-08-25T19:54:04.252Z,25.50
2022-08-25T19:56:32.471Z,25.40
2022-08-25T19:58:59.895Z,25.40
2022-08-25T20:01:26.690Z,25.20
2022-08-25T20:03:53.839Z,25.10
2022-08-25T20:06:23.818Z,25.00
2022-08-25T20:08:58.962Z,25.00
2022-08-25T20:11:28.959Z,25.00
2022-08-25T20:13:58.296Z,24.90
2022-08-25T20:16:28.411Z,24.90
2022-08-25T20:18:55.290Z,24.80
2022-08-25T20:21:22.131Z,24.80
2022-08-25T20:24:07.531Z,24.80
2022-08-25T20:26:36.563Z,24.80
2022-08-25T20:29:05.121Z,24.80
2022-08-25T20:31:32.737Z,24.70
2022-08-25T20:34:03.065Z,24.60
2022-08-25T20:36:30.029Z,24.60
2022-08-25T20:38:59.061Z,24.60
2022-08-25T20:41:26.251Z,24.50
2022-08-25T20:43:52.958Z,24.40
2022-08-25T20:46:19.767Z,24.50
2022-08-25T20:48:47.107Z,24.40
2022-08-25T20:51:15.890Z,24.30
2022-08-25T20:53:45.738Z,24.30
2022-08-25T20:56:15.845Z,24.20
2022-08-25T20:58:42.980Z,24.20
2022-08-25T21:01:17.433Z,24.10
2022-08-25T21:03:50.283Z,24.10
2022-08-25T21:06:17.151Z,24.00
2022-08-25T21:08:46.768Z,24.00
2022-08-25T21:11:18.067Z,23.90
2022-08-25T21:13:45.833Z,23.90
2022-08-25T21:16:12.546Z,23.80
2022-08-25T21:18:42.661Z,23.80
2022-08-25T21:21:16.625Z,23.70
2022-08-25T21:23:48.255Z,23.70
2022-08-25T21:26:18.060Z,23.60
2022-08-25T21:28:47.764Z,23.60
2022-08-25T21:31:15.377Z,23.70
2022-08-25T21:33:43.207Z,23.60
2022-08-25T21:36:11.762Z,23.50
2022-08-25T21:38:40.000Z,23.50
2022-08-25T21:41:16.262Z,23.50
2022-08-25T21:43:44.849Z,23.50
2022-08-25T21:46:18.495Z,23.40
2022-08-25T21:48:46.677Z,23.40
2022-08-25T21:51:16.817Z,23.30
2022-08-25T21:53:43.486Z,23.30
2022-08-25T21:56:15.999Z,23.30
2022-08-25T21:58:45.691Z,23.30
2022-08-25T22:01:19.616Z,23.20
2022-08-25T22:03:47.368Z,23.10
2022-08-25T22:06:15.211Z,23.10
2022-08-25T22:08:43.244Z,23.10
2022-08-25T22:11:10.745Z,23.10
2022-08-25T22:13:38.372Z,23.00
2022-08-25T22:16:07.977Z,23.00
2022-08-25T22:18:34.970Z,22.90
2022-08-25T22:21:08.628Z,22.90
2022-08-25T22:23:44.033Z,22.90
2022-08-25T22:26:15.185Z,22.90
2022-08-25T22:28:43.653Z,22.80
2022-08-25T22:31:14.285Z,22.80
2022-08-25T22:33:48.361Z,22.80
2022-08-25T22:36:27.910Z,22.80
2022-08-25T22:38:55.607Z,22.70
2022-08-25T22:41:24.457Z,22.80
2022-08-25T22:43:52.990Z,22.80
2022-08-25T22:46:22.121Z,22.80
2022-08-25T22:48:50.366Z,22.70
2022-08-25T22:51:20.860Z,22.80
2022-08-25T22:53:49.237Z,22.70
2022-08-25T22:56:20.779Z,22.70
2022-08-25T22:58:51.652Z,22.80
2022-08-25T23:01:20.652Z,22.70
2022-08-25T23:03:47.657Z,22.70
2022-08-25T23:06:24.829Z,22.70
2022-08-25T23:08:54.115Z,22.70
2022-08-25T23:11:21.989Z,22.70
2022-08-25T23:13:49.367Z,22.60
2022-08-25T23:16:17.256Z,22.60
2022-08-25T23:18:44.981Z,22.60
2022-08-25T23:21:35.112Z,22.60
2022-08-25T23:24:05.453Z,22.50
2022-08-25T23:26:33.315Z,22.50
2022-08-25T23:29:00.656Z,22.50
2022-08-25T23:31:30.455Z,22.40
2022-08-25T23:33:58.509Z,22.40
2022-08-25T23:36:25.661Z,22.40
2022-08-25T23:38:52.683Z,22.30
2022-08-25T23:41:23.395Z,22.40
2022-08-25T23:43:50.983Z,22.40
2022-08-25T23:46:20.356Z,22.30
2022-08-25T23:48:48.339Z,22.40
2022-08-25T23:51:23.962Z,22.40
2022-08-25T23:53:51.765Z,22.40
2022-08-25T23:56:18.467Z,22.40
2022-08-25T23:58:45.445Z,22.40
